Time;durP1;ratioP1;P1;durP2;ratioP2;P2;SDS_P1;SDS_P2;PMS_P1;PMS_P2;Temp;Humidity;BMP_temperature;BMP_pressure;BME280_temperature;BME280_humidity;BME280_pressure;Samples;Min_cycle;Max_cycle;Signal;HPM_P1;HPM_P2
2024/01/21 07:35:10;;;;;;;1.13;1.00;;;3.10;99.90;5.00;101651.00;;;;6342778;22;20208;-70
2024/01/21 07:37:37;;;;;;;3.17;2.00;;;3.00;99.90;5.00;101725.00;;;;6274519;22;1318894;-68
2024/01/21 07:40:05;;;;;;;0.47;0.47;;;3.10;99.90;6.00;101718.00;;;;6276793;22;20192;-69
2024/01/21 07:42:31;;;;;;;1.07;1.07;;;3.30;99.90;5.50;101719.00;;;;6278024;22;20502;-69
2024/01/21 07:44:57;;;;;;;1.80;1.70;;;3.30;99.90;5.60;101718.00;;;;6277877;22;20138;-68
2024/01/21 07:47:26;;;;;;;1.93;1.57;;;3.30;99.90;4.80;101713.00;;;;6278360;22;20166;-69
2024/01/21 07:49:51;;;;;;;1.90;1.43;;;3.20;99.90;5.00;101694.00;;;;6277626;22;20143;-69
2024/01/21 07:52:18;;;;;;;2.87;1.37;;;3.10;99.90;5.40;101605.00;;;;6302413;22;20243;-69
2024/01/21 07:54:44;;;;;;;1.10;1.00;;;3.30;99.90;5.20;101682.00;;;;6276724;22;20251;-69
2024/01/21 07:57:11;;;;;;;0.20;0.20;;;3.30;99.90;5.90;101682.00;;;;6276316;22;20141;-69
2024/01/21 07:59:37;;;;;;;0.67;0.67;;;3.40;99.90;6.00;101711.00;;;;6276943;22;20153;-69
2024/01/21 08:02:06;;;;;;;1.50;1.40;;;3.70;99.90;6.20;101714.00;;;;6276360;22;20185;-69
2024/01/21 08:04:31;;;;;;;6.67;2.17;;;3.90;99.90;6.00;101630.00;;;;6276228;22;20629;-69
2024/01/21 08:07:00;;;;;;;3.20;1.77;;;3.70;99.90;5.00;101695.00;;;;6277568;22;20145;-68
2024/01/21 08:09:28;;;;;;;2.63;2.07;;;3.50;99.90;4.50;101652.00;;;;6276368;22;20181;-68
2024/01/21 08:12:03;;;;;;;0.90;0.67;;;3.30;99.90;4.50;101650.00;;;;6277698;22;20152;-68
2024/01/21 08:14:30;;;;;;;1.42;1.33;;;3.20;99.90;5.00;101640.00;;;;6278164;22;20421;-69
2024/01/21 08:16:56;;;;;;;1.33;1.20;;;3.20;99.90;4.60;101653.00;;;;6251090;22;20488;-69
2024/01/21 08:19:25;;;;;;;1.27;1.10;;;3.20;99.90;5.20;101644.00;;;;6276304;22;20150;-69
2024/01/21 08:21:54;;;;;;;0.20;0.20;;;3.30;99.90;6.10;101657.00;;;;6277824;22;20180;-69
2024/01/21 08:24:20;;;;;;;1.33;1.20;;;3.50;99.90;4.70;101608.00;;;;6275859;22;20371;-68
2024/01/21 08:26:48;;;;;;;3.97;2.67;;;3.30;99.90;4.30;101634.00;;;;6276431;22;20149;-69
2024/01/21 08:29:23;;;;;;;1.63;1.53;;;3.20;99.90;4.40;101645.00;;;;6275814;22;20149;-69
2024/01/21 08:31:52;;;;;;;0.30;0.30;;;3.10;99.90;4.50;101637.00;;;;6276565;22;20145;-69
2024/01/21 08:34:18;;;;;;;1.23;1.03;;;3.10;99.90;4.10;101631.00;;;;6276298;22;20161;-69
2024/01/21 08:36:44;;;;;;;1.37;1.30;;;3.00;99.90;4.50;101639.00;;;;6276073;22;20165;-69
2024/01/21 08:39:09;;;;;;;2.00;1.17;;;3.10;99.90;5.00;101648.00;;;;6277743;22;20153;-69
2024/01/21 08:41:38;;;;;;;1.83;1.60;;;3.30;99.90;5.80;101653.00;;;;6276417;22;20223;-68
2024/01/21 08:44:08;;;;;;;1.00;1.00;;;3.50;99.90;5.10;101646.00;;;;6278072;22;20224;-68
2024/01/21 08:46:39;;;;;;;2.23;2.00;;;3.40;99.90;4.50;101654.00;;;;6276472;22;20141;-68
2024/01/21 08:49:07;;;;;;;2.47;1.70;;;3.30;99.90;4.60;101632.00;;;;6275610;22;20562;-69
2024/01/21 08:51:41;;;;;;;2.00;1.90;;;3.30;99.90;4.60;101632.00;;;;6250335;22;20240;-68
2024/01/21 08:54:10;;;;;;;1.87;1.50;;;3.20;99.90;5.10;101634.00;;;;6277657;22;20173;-68
2024/01/21 08:56:39;;;;;;;3.53;3.20;;;3.20;99.90;5.50;101574.00;;;;6276001;22;20578;-69
2024/01/21 08:59:12;;;;;;;1.60;1.50;;;3.40;99.90;5.80;101660.00;;;;6277501;22;20157;-69
2024/01/21 09:01:42;;;;;;;1.63;1.27;;;3.70;99.90;5.30;101658.00;;;;6275952;22;20217;-69
2024/01/21 09:04:27;;;;;;;2.13;1.57;;;3.70;99.90;4.80;101646.00;;;;6275112;22;20158;-68
2024/01/21 09:07:02;;;;;;;3.27;2.20;;;3.60;99.90;4.70;101646.00;;;;6277168;22;20156;-69
2024/01/21 09:09:53;;;;;;;2.70;2.50;;;3.40;99.90;5.40;101652.00;;;;6275671;22;20149;-69
2024/01/21 09:12:19;;;;;;;4.23;3.90;;;3.50;99.90;5.80;101606.00;;;;6274852;22;20497;-69
2024/01/21 09:14:56;;;;;;;1.80;1.70;;;3.80;99.90;5.20;101590.00;;;;6275299;22;20149;-69
2024/01/21 09:17:31;;;;;;;2.23;2.03;;;3.60;99.90;4.80;101662.00;;;;6276620;22;20185;-70
2024/01/21 09:19:59;;;;;;;3.80;1.00;;;3.60;99.90;5.40;101653.00;;;;6275176;22;20245;-71
2024/01/21 09:22:25;;;;;;;4.80;0.97;;;3.60;99.90;6.00;101647.00;;;;6275336;22;20273;-69
2024/01/21 09:24:51;;;;;;;2.13;1.00;;;3.80;99.90;5.70;101661.00;;;;6275516;22;20154;-69
2024/01/21 09:27:17;;;;;;;0.97;0.73;;;3.90;99.90;5.40;101603.00;;;;6275808;22;20150;-68
2024/01/21 09:29:43;;;;;;;3.93;2.80;;;3.90;99.90;4.80;101669.00;;;;6276895;22;20151;-68
2024/01/21 09:32:11;;;;;;;1.97;1.87;;;3.80;99.90;5.70;101678.00;;;;6249861;22;20164;-71
2024/01/21 09:34:40;;;;;;;0.57;0.57;;;4.00;99.90;6.90;101692.00;;;;6275527;22;20483;-69
2024/01/21 09:37:09;;;;;;;1.50;1.40;;;4.40;99.90;5.80;101678.00;;;;6275319;22;20171;-70
2024/01/21 09:39:35;;;;;;;0.80;0.80;;;4.30;99.90;6.10;101686.00;;;;6274851;22;20143;-69
2024/01/21 09:42:07;;;;;;;1.70;0.90;;;4.40;99.90;6.10;101667.00;;;;6276730;22;20611;-71
2024/01/21 09:44:33;;;;;;;1.23;1.13;;;4.30;99.90;5.40;101673.00;;;;6250097;22;20182;-71
2024/01/21 09:47:05;;;;;;;0.87;0.80;;;4.20;99.90;5.30;101662.00;;;;6276665;22;20576;-70
2024/01/21 09:49:31;;;;;;;2.50;2.23;;;4.10;99.90;5.40;101606.00;;;;6277204;22;20226;-71
2024/01/21 09:51:58;;;;;;;0.83;0.60;;;4.10;99.90;6.60;101683.00;;;;6276873;22;20140;-71
2024/01/21 09:54:33;;;;;;;1.03;0.93;;;4.40;99.90;5.80;101608.00;;;;6276743;22;20489;-73
2024/01/21 09:57:23;;;;;;;2.30;1.20;;;4.30;99.90;6.50;101650.00;;;;6275899;22;20163;-73
2024/01/21 09:59:58;;;;;;;1.40;0.83;;;4.50;99.90;5.70;101607.00;;;;6275539;22;20150;-73
2024/01/21 10:02:25;;;;;;;3.97;3.70;;;4.40;99.90;5.90;101647.00;;;;6275316;22;20507;-73
2024/01/21 10:04:51;;;;;;;4.90;3.87;;;4.50;99.90;5.90;101667.00;;;;6275259;22;20512;-73
2024/01/21 10:07:18;;;;;;;1.80;1.70;;;4.60;99.90;6.30;101660.00;;;;6299954;22;20534;-72
2024/01/21 10:09:57;;;;;;;5.60;1.67;;;4.70;99.90;6.10;101651.00;;;;6275390;22;20172;-72
2024/01/21 10:12:24;;;;;;;3.80;2.33;;;4.70;99.90;5.90;101659.00;;;;6276866;22;20147;-72
2024/01/21 10:14:50;;;;;;;1.20;1.07;;;4.70;99.90;6.70;101648.00;;;;6248895;22;20485;-72
2024/01/21 10:17:31;;;;;;;2.63;1.40;;;4.90;99.90;6.80;101602.00;;;;6274017;22;20218;-72
2024/01/21 10:20:00;;;;;;;2.70;2.53;;;5.10;99.90;7.00;101656.00;;;;6276619;22;20152;-72
2024/01/21 10:33:32;;;;;;;0.63;0.63;;;4.60;99.90;5.70;101544.00;;;;5070368;28;20966;-69
2024/01/21 10:36:04;;;;;;;1.17;1.07;;;4.70;99.90;6.10;101580.00;;;;5040122;28;20211;-69
2024/01/21 10:38:36;;;;;;;0.20;0.20;;;4.90;99.90;8.00;101577.00;;;;5082081;28;20186;-69
2024/01/21 10:41:06;;;;;;;1.73;1.63;;;5.30;99.90;6.80;101609.00;;;;5050387;28;20192;-69
2024/01/21 10:43:34;;;;;;;0.67;0.67;;;5.40;99.90;7.30;101635.00;;;;5048238;28;20186;-70
2024/01/21 10:46:04;;;;;;;1.50;1.40;;;5.40;99.90;7.00;101589.00;;;;5048727;28;20190;-68
2024/01/21 10:48:36;;;;;;;2.47;2.17;;;5.40;99.90;7.90;101652.00;;;;5081282;28;20192;-68
2024/01/21 10:51:10;;;;;;;1.47;1.37;;;5.70;99.90;6.80;101595.00;;;;5064757;28;20269;-68
2024/01/21 10:53:42;;;;;;;1.07;1.03;;;5.40;99.90;6.80;101618.00;;;;5081999;28;20182;-69
2024/01/21 10:56:15;;;;;;;2.47;0.73;;;5.40;99.90;6.50;101627.00;;;;5065250;28;20198;-69
2024/01/21 10:58:41;;;;;;;1.57;1.47;;;5.10;99.90;6.50;101586.00;;;;5048758;28;20337;-68
2024/01/21 11:01:11;;;;;;;0.20;0.20;;;5.00;99.90;7.50;101635.00;;;;5064725;28;20567;-69
2024/01/21 11:03:39;;;;;;;1.60;1.50;;;5.20;99.90;7.20;101593.00;;;;5047378;28;20191;-69
2024/01/21 11:06:10;;;;;;;1.53;1.43;;;5.40;99.90;7.10;101644.00;;;;5047921;28;20185;-68
2024/01/21 11:08:52;;;;;;;2.17;1.83;;;5.50;99.90;7.20;101652.00;;;;5049198;28;20190;-67
2024/01/21 11:11:22;;;;;;;0.67;0.67;;;5.40;99.90;7.00;101645.00;;;;5060397;28;20187;-67
2024/01/21 11:13:54;;;;;;;2.93;2.73;;;5.30;99.90;6.00;101627.00;;;;5078562;28;20253;-67
2024/01/21 11:16:30;;;;;;;2.37;1.10;;;5.20;99.90;6.60;101630.00;;;;5061273;28;20182;-68
2024/01/21 11:19:51;;;;;;;1.67;1.57;;;5.20;99.90;6.20;101619.00;;;;5049516;28;20182;-67
2024/01/21 11:22:23;;;;;;;4.37;2.77;;;5.20;99.90;7.20;101633.00;;;;5044203;28;20258;-67
2024/01/21 11:24:53;;;;;;;3.60;2.27;;;5.30;99.90;6.40;101620.00;;;;5049344;28;20220;-67
2024/01/21 11:27:29;;;;;;;2.80;2.37;;;5.30;99.90;6.60;101622.00;;;;5047172;28;20246;-66
2024/01/21 11:30:13;;;;;;;1.83;1.63;;;5.20;99.90;7.40;101619.00;;;;5068543;28;20703;-67
2024/01/21 11:32:41;;;;;;;0.90;0.83;;;5.40;99.90;6.70;101623.00;;;;5081516;28;20214;-67
2024/01/21 11:35:15;;;;;;;2.10;1.93;;;5.30;99.90;6.70;101628.00;;;;5047736;28;20211;-68
2024/01/21 11:37:45;;;;;;;1.97;1.70;;;5.30;99.90;7.10;101617.00;;;;5049182;28;20524;-67
2024/01/21 11:40:11;;;;;;;1.90;1.57;;;5.50;99.90;6.40;101620.00;;;;5044345;28;20185;-67
2024/01/21 11:42:55;;;;;;;1.20;1.20;;;5.30;99.90;7.40;101654.00;;;;5035149;28;20561;-67
2024/01/21 11:45:21;;;;;;;0.63;0.60;;;5.50;99.90;7.50;101636.00;;;;5031859;28;20186;-67
2024/01/21 11:47:52;;;;;;;2.23;2.07;;;5.60;99.90;7.20;101655.00;;;;5034611;28;20190;-67
2024/01/21 11:50:20;;;;;;;8.13;2.00;;;5.80;99.90;7.50;101644.00;;;;5035697;28;20182;-67
2024/01/21 11:53:01;;;;;;;1.87;1.77;;;5.80;99.90;7.90;101647.00;;;;5035314;28;20194;-67
2024/01/21 11:55:46;;;;;;;1.07;1.00;;;5.80;99.90;7.20;101617.00;;;;5051047;28;20582;-68
2024/01/21 11:58:22;;;;;;;3.50;1.63;;;5.70;99.90;6.50;101606.00;;;;5026735;28;20194;-67
2024/01/21 12:00:57;;;;;;;2.63;1.50;;;5.50;99.90;6.20;101579.00;;;;5034533;28;20183;-67
2024/01/21 12:03:28;;;;;;;2.07;1.97;;;5.30;99.90;6.10;101603.00;;;;5051053;28;20655;-67
2024/01/21 12:06:17;;;;;;;1.50;1.30;;;5.30;99.90;6.70;101592.00;;;;5031712;28;20194;-67
2024/01/21 12:08:49;;;;;;;1.53;1.43;;;5.30;99.90;6.40;101595.00;;;;5030060;28;20179;-67
2024/01/21 12:11:57;;;;;;;0.80;0.80;;;5.30;99.90;7.00;101594.00;;;;5034470;28;20179;-67
2024/01/21 12:14:23;;;;;;;0.43;0.43;;;5.50;99.90;8.20;101599.00;;;;5054899;28;20258;-67
2024/01/21 12:16:58;;;;;;;0.60;0.60;;;5.80;99.90;7.70;101627.00;;;;5031145;28;20187;-67
2024/01/21 12:19:26;;;;;;;0.40;0.40;;;5.90;99.90;7.80;101632.00;;;;5032037;28;20182;-67
2024/01/21 12:21:54;;;;;;;1.93;1.83;;;5.90;99.90;7.60;101630.00;;;;5034129;28;20189;-67
2024/01/21 12:24:25;;;;;;;2.00;1.43;;;6.10;99.90;7.90;101660.00;;;;5066759;28;20187;-67
2024/01/21 12:27:00;;;;;;;0.70;0.70;;;6.10;99.90;8.20;101668.00;;;;5017077;28;20189;-67
2024/01/21 12:29:38;;;;;;;0.70;0.70;;;6.20;99.90;8.30;101684.00;;;;5028860;28;20196;-67
2024/01/21 12:32:08;;;;;;;1.00;1.00;;;6.30;99.90;7.80;101689.00;;;;5031447;28;20319;-67
2024/01/21 12:34:34;;;;;;;1.67;1.57;;;6.30;99.90;8.10;101665.00;;;;5033544;28;20210;-67
2024/01/21 12:37:00;;;;;;;3.57;2.13;;;6.20;99.90;8.20;101606.00;;;;5024645;28;20193;-67
2024/01/21 12:39:28;;;;;;;0.97;0.80;;;6.20;99.90;7.60;101650.00;;;;5041001;28;20175;-67
2024/01/21 12:42:00;;;;;;;0.90;0.90;;;6.00;99.90;7.90;101670.00;;;;5043850;28;20181;-67
2024/01/21 12:44:26;;;;;;;6.77;1.90;;;6.10;99.90;8.30;101652.00;;;;5032397;28;20222;-67
2024/01/21 12:46:51;;;;;;;1.17;1.07;;;6.20;99.90;7.90;101649.00;;;;5034371;28;20636;-67
2024/01/21 12:49:26;;;;;;;1.63;1.43;;;6.10;99.90;7.10;101652.00;;;;5032904;28;20491;-67
2024/01/21 12:51:55;;;;;;;0.50;0.50;;;5.90;99.90;7.70;101659.00;;;;5065513;28;20212;-67
2024/01/21 12:54:21;;;;;;;0.30;0.30;;;5.90;99.90;7.90;101652.00;;;;5030975;28;20182;-67
2024/01/21 12:57:00;;;;;;;2.33;2.07;;;5.90;99.90;7.50;101659.00;;;;5032543;28;20190;-67
2024/01/21 12:59:26;;;;;;;4.83;2.93;;;5.90;99.90;7.20;101587.00;;;;5056232;28;20199;-67
2024/01/21 13:01:55;;;;;;;0.97;0.97;;;6.00;99.90;7.70;101639.00;;;;5029114;28;20231;-67
2024/01/21 13:04:24;;;;;;;3.97;2.87;;;5.80;99.90;7.30;101628.00;;;;5032893;28;20629;-67
2024/01/21 13:06:49;;;;;;;2.53;1.63;;;5.80;99.90;8.20;101636.00;;;;5032735;28;20178;-67
2024/01/21 13:09:18;;;;;;;1.77;1.67;;;6.10;99.90;7.50;101621.00;;;;5036293;28;20191;-67
2024/01/21 13:11:47;;;;;;;1.63;1.53;;;6.00;99.90;7.60;101620.00;;;;5016255;28;20661;-67
2024/01/21 13:14:12;;;;;;;1.60;0.97;;;6.00;99.90;7.20;101581.00;;;;5032416;28;20582;-67
2024/01/21 13:16:38;;;;;;;1.03;0.80;;;5.80;99.90;8.10;101597.00;;;;5031739;28;20210;-67
2024/01/21 13:19:04;;;;;;;2.80;2.50;;;6.00;99.90;6.90;101521.00;;;;5033497;28;20657;-67
2024/01/21 13:21:30;;;;;;;3.93;2.67;;;5.80;99.90;7.30;101567.00;;;;5066266;28;20191;-67
2024/01/21 13:24:04;;;;;;;2.40;2.13;;;5.90;99.90;6.80;101582.00;;;;5063962;28;20187;-67
2024/01/21 13:26:40;;;;;;;0.97;0.93;;;5.80;99.90;7.70;101504.00;;;;5046236;28;20191;-67
2024/01/21 13:31:54;;;;;;;1.60;1.50;;;5.80;99.90;7.50;101497.00;;;;5054393;28;20237;-67
2024/01/21 13:34:20;;;;;;;1.37;1.27;;;5.80;99.90;6.80;101551.00;;;;5064311;28;20637;-67
2024/01/21 13:36:49;;;;;;;4.07;3.30;;;5.70;99.90;6.70;101544.00;;;;5038128;28;20245;-67
2024/01/21 13:39:16;;;;;;;1.50;1.40;;;5.60;99.90;7.10;101538.00;;;;5056341;28;20197;-67
2024/01/21 13:41:44;;;;;;;2.97;2.67;;;5.70;99.90;7.00;101560.00;;;;5032890;28;20236;-67
2024/01/21 13:44:10;;;;;;;3.90;2.90;;;5.70;99.90;6.70;101561.00;;;;5032120;28;20637;-67
2024/01/21 13:46:37;;;;;;;0.47;0.47;;;5.60;99.90;7.70;101557.00;;;;5029878;28;20190;-67
2024/01/21 13:49:08;;;;;;;1.17;1.07;;;5.80;99.90;7.40;101556.00;;;;5029428;28;20186;-67
2024/01/21 13:51:37;;;;;;;2.23;1.70;;;5.90;99.90;6.80;101549.00;;;;5031817;28;20241;-67
2024/01/21 13:54:06;;;;;;;0.30;0.30;;;5.70;99.90;7.50;101545.00;;;;5029465;28;20195;-67
2024/01/21 13:56:35;;;;;;;2.70;2.50;;;5.80;99.90;7.30;101548.00;;;;5029320;28;20183;-67
2024/01/21 13:59:04;;;;;;;2.13;1.50;;;5.80;99.90;7.70;101554.00;;;;5048630;28;20273;-67
2024/01/21 14:01:29;;;;;;;1.57;1.47;;;5.90;99.90;7.90;101562.00;;;;5030499;28;20187;-67
2024/01/21 14:04:02;;;;;;;2.87;2.37;;;6.00;99.90;7.60;101580.00;;;;5031284;28;20191;-67
2024/01/21 14:06:50;;;;;;;3.47;1.80;;;6.00;99.90;7.00;101533.00;;;;5018815;28;20187;-67
2024/01/21 14:09:16;;;;;;;1.30;1.20;;;5.90;99.90;6.60;101543.00;;;;5031810;28;20187;-67
2024/01/21 14:11:45;;;;;;;2.60;2.13;;;5.70;99.90;6.50;101530.00;;;;5031205;28;20210;-67
2024/01/21 14:14:12;;;;;;;0.53;0.53;;;5.60;99.90;6.90;101514.00;;;;5030043;28;20194;-67
2024/01/21 14:16:40;;;;;;;1.67;1.57;;;5.60;99.90;7.10;101519.00;;;;5032221;28;20605;-67
2024/01/21 14:19:11;;;;;;;1.93;1.60;;;5.70;99.90;7.00;101477.00;;;;5033029;28;20624;-67
2024/01/21 14:21:37;;;;;;;2.93;2.73;;;5.70;99.90;7.00;101500.00;;;;5032610;28;20525;-67
2024/01/21 14:24:09;;;;;;;5.93;3.17;;;5.80;99.90;6.90;101485.00;;;;5043736;28;20248;-67
2024/01/21 14:26:45;;;;;;;2.37;1.87;;;5.70;99.90;6.60;101484.00;;;;5063607;28;20187;-67
2024/01/21 14:29:26;;;;;;;2.83;2.53;;;5.60;99.90;7.40;101489.00;;;;5027423;28;20183;-67
2024/01/21 14:31:55;;;;;;;2.80;2.07;;;5.80;99.90;6.50;101494.00;;;;5031424;28;20209;-67
2024/01/21 14:34:26;;;;;;;0.97;0.97;;;5.70;99.90;8.10;101513.00;;;;5031748;28;20268;-67
2024/01/21 14:36:55;;;;;;;10.40;3.20;;;5.90;99.90;7.40;101498.00;;;;5028834;28;20634;-67
2024/01/21 14:39:24;;;;;;;2.70;1.87;;;6.00;99.90;7.20;101501.00;;;;5031965;28;20220;-67
2024/01/21 14:41:50;;;;;;;3.30;1.97;;;5.90;99.90;6.80;101452.00;;;;5031128;28;20190;-67
2024/01/21 14:44:16;;;;;;;3.00;1.37;;;5.80;99.90;7.00;101481.00;;;;5031284;28;20214;-67
2024/01/21 14:46:52;;;;;;;2.67;2.47;;;5.70;99.90;6.80;101457.00;;;;5031720;28;20637;-67
2024/01/21 14:49:22;;;;;;;5.67;2.90;;;5.80;99.90;7.30;101394.00;;;;5029747;28;20186;-67
2024/01/21 14:51:47;;;;;;;1.70;1.60;;;5.80;99.90;7.20;101428.00;;;;5021422;28;20223;-67
2024/01/21 14:54:13;;;;;;;2.47;2.27;;;5.80;99.90;7.00;101433.00;;;;5012861;28;20193;-67
2024/01/21 14:56:40;;;;;;;0.70;0.67;;;5.80;99.90;7.40;101488.00;;;;5027503;28;20588;-67
2024/01/21 14:59:13;;;;;;;1.30;0.97;;;5.90;99.90;7.10;101503.00;;;;5037004;28;20196;-67
2024/01/21 15:01:42;;;;;;;1.17;1.07;;;5.80;99.90;7.30;101518.00;;;;5040778;28;20196;-67
2024/01/21 15:04:11;;;;;;;5.97;3.10;;;5.80;99.90;7.80;101518.00;;;;5036997;28;20636;-67
2024/01/21 15:06:55;;;;;;;4.40;3.00;;;6.10;99.90;6.40;101466.00;;;;5034102;28;20193;-67
2024/01/21 15:09:45;;;;;;;4.70;3.67;;;5.80;99.90;7.20;101482.00;;;;5059197;28;20198;-67
2024/01/21 15:12:12;;;;;;;3.70;2.97;;;5.70;99.90;6.40;101474.00;;;;5059219;28;20209;-67
2024/01/21 15:15:03;;;;;;;2.10;1.90;;;5.60;99.90;6.90;101503.00;;;;5015425;28;20211;-67
2024/01/21 15:17:35;;;;;;;3.70;2.37;;;5.60;99.90;6.90;101446.00;;;;5019502;28;20186;-67
2024/01/21 15:20:01;;;;;;;8.23;3.67;;;5.70;99.90;6.90;101491.00;;;;5045105;28;20633;-67
2024/01/21 15:22:30;;;;;;;3.33;2.13;;;5.70;99.90;6.90;101487.00;;;;5033595;28;20225;-67
2024/01/21 15:24:57;;;;;;;4.23;1.40;;;5.60;99.90;6.90;101465.00;;;;5065329;28;20233;-67
2024/01/21 15:27:23;;;;;;;2.13;1.30;;;5.70;99.90;7.20;101462.00;;;;5033387;28;20194;-68
2024/01/21 15:29:49;;;;;;;3.00;1.67;;;5.80;99.90;7.20;101504.00;;;;5033033;28;20194;-69
2024/01/21 15:32:15;;;;;;;7.10;3.17;;;5.70;99.90;6.40;101450.00;;;;5059449;28;20209;-69
2024/01/21 15:35:05;;;;;;;2.37;1.77;;;5.60;99.90;7.00;101471.00;;;;5043176;28;20282;-68
2024/01/21 15:37:33;;;;;;;2.37;2.17;;;5.70;99.90;7.20;101468.00;;;;5033660;28;20672;-68
2024/01/21 15:39:59;;;;;;;1.27;1.20;;;5.70;99.90;6.90;101456.00;;;;5034438;28;20192;-67
2024/01/21 15:42:26;;;;;;;2.40;1.53;;;5.60;99.90;6.90;101454.00;;;;5033890;28;20191;-67
2024/01/21 15:45:06;;;;;;;4.10;3.13;;;5.60;99.90;7.30;101419.00;;;;5030006;28;20190;-67
2024/01/21 15:47:58;;;;;;;0.43;0.43;;;5.60;99.90;7.30;101417.00;;;;5035259;28;20254;-68
2024/01/21 15:50:45;;;;;;;1.83;1.53;;;5.70;99.90;6.90;101433.00;;;;5034771;28;20182;-67
2024/01/21 15:53:29;;;;;;;4.47;3.53;;;5.70;99.90;7.00;101443.00;;;;5034812;28;20208;-68
2024/01/21 15:56:03;;;;;;;3.17;2.87;;;5.60;99.90;6.90;101420.00;;;;5034678;28;20192;-67
2024/01/21 15:59:01;;;;;;;2.50;2.17;;;5.60;99.90;7.00;101419.00;;;;5035003;28;20209;-67
2024/01/21 16:01:49;;;;;;;2.33;1.80;;;5.70;99.90;7.30;101416.00;;;;5021162;28;20188;-67
2024/01/21 16:04:16;;;;;;;3.20;2.87;;;5.80;99.90;6.90;101357.00;;;;5017638;28;20273;-67
2024/01/21 16:07:15;;;;;;;3.87;3.47;;;5.70;99.90;7.00;101389.00;;;;5027733;28;20185;-67
2024/01/21 16:10:22;;;;;;;2.63;2.47;;;5.80;99.90;7.00;101377.00;;;;5034391;28;20190;-67
2024/01/21 16:13:06;;;;;;;1.43;1.20;;;5.80;99.90;7.00;101371.00;;;;5034577;28;20206;-67
2024/01/21 16:16:10;;;;;;;2.80;2.13;;;5.70;99.90;6.70;101383.00;;;;5017643;28;20274;-67
2024/01/21 16:18:54;;;;;;;2.20;1.63;;;5.70;99.90;7.60;101382.00;;;;5003438;28;20186;-67
2024/01/21 16:21:24;;;;;;;4.17;3.27;;;5.90;99.90;7.10;101384.00;;;;5034478;28;20217;-71
2024/01/21 16:23:50;;;;;;;3.13;2.77;;;5.80;99.90;7.30;101383.00;;;;5025760;28;20222;-73
2024/01/21 16:26:16;;;;;;;2.30;1.77;;;5.90;99.90;7.30;101379.00;;;;5017411;28;20214;-73
2024/01/21 16:28:59;;;;;;;3.20;2.27;;;5.90;99.90;7.20;101366.00;;;;5035443;28;20228;-68
2024/01/21 16:43:49;;;;;;;9.50;3.83;;;5.80;99.90;7.40;101351.00;;;;5110246;27;20476;-66
2024/01/21 16:46:15;;;;;;;5.93;3.27;;;6.10;99.90;7.20;101345.00;;;;5064503;28;20628;-66
2024/01/21 16:48:42;;;;;;;6.00;3.23;;;6.10;99.90;7.20;101338.00;;;;5050421;28;20242;-66
2024/01/21 16:51:19;;;;;;;5.13;3.37;;;6.10;99.90;6.70;101340.00;;;;5054928;28;20261;-66
2024/01/21 16:53:47;;;;;;;2.57;2.37;;;6.00;99.90;7.10;101334.00;;;;5062660;28;20199;-66
2024/01/21 16:56:13;;;;;;;2.57;2.27;;;6.10;99.90;7.60;101344.00;;;;5056233;28;20181;-66
2024/01/21 16:58:40;;;;;;;2.33;2.17;;;6.20;99.90;7.70;101335.00;;;;5056832;28;20693;-66
2024/01/21 17:01:15;;;;;;;1.70;1.60;;;6.30;99.90;7.70;101349.00;;;;5052242;28;20574;-66
2024/01/21 17:04:08;;;;;;;3.33;2.90;;;6.30;99.90;6.90;101340.00;;;;5080664;28;20176;-66
2024/01/21 17:06:53;;;;;;;3.20;2.90;;;6.30;99.90;7.90;101359.00;;;;5065627;28;20199;-66
2024/01/21 17:09:23;;;;;;;4.10;1.93;;;6.30;99.90;7.40;101349.00;;;;5076565;28;20184;-66
2024/01/21 17:12:36;;;;;;;1.43;1.33;;;6.40;99.90;7.90;101365.00;;;;5060055;28;20248;-66
2024/01/21 17:15:05;;;;;;;4.77;1.80;;;6.50;99.90;8.00;101374.00;;;;5057246;28;20209;-66
2024/01/21 17:17:31;;;;;;;4.80;2.93;;;6.50;99.90;7.70;101361.00;;;;5043016;28;20252;-66
2024/01/21 17:19:58;;;;;;;6.50;3.70;;;6.60;99.90;7.80;101357.00;;;;5051329;28;20716;-66
2024/01/21 17:22:25;;;;;;;0.87;0.87;;;6.50;99.90;8.40;101366.00;;;;5070044;28;20189;-66
2024/01/21 17:24:51;;;;;;;2.73;2.40;;;6.70;99.90;8.00;101375.00;;;;5054312;28;20189;-66
2024/01/21 17:27:17;;;;;;;2.07;0.90;;;6.60;99.90;8.00;101381.00;;;;5047961;28;20226;-66
2024/01/21 17:29:50;;;;;;;10.30;2.60;;;6.60;99.90;8.30;101378.00;;;;5043750;28;20183;-66
2024/01/21 17:32:17;;;;;;;1.27;1.27;;;6.70;99.90;7.50;101340.00;;;;5050981;28;20201;-66
2024/01/21 17:34:43;;;;;;;4.07;2.50;;;6.60;99.90;8.20;101357.00;;;;5061526;28;20190;-66
2024/01/21 17:37:09;;;;;;;5.80;4.20;;;6.70;99.90;8.00;101351.00;;;;5070467;28;20187;-66
2024/01/21 17:39:35;;;;;;;0.50;0.50;;;6.70;99.90;8.50;101351.00;;;;5050952;28;20201;-65
2024/01/21 17:42:07;;;;;;;1.60;1.50;;;6.70;99.90;8.00;101355.00;;;;5060994;28;20649;-66
2024/01/21 17:44:35;;;;;;;1.27;1.17;;;6.70;99.90;7.90;101363.00;;;;5057924;28;20331;-66
2024/01/21 17:47:01;;;;;;;3.17;2.63;;;6.60;99.90;8.40;101378.00;;;;5065753;28;20175;-65
2024/01/21 17:49:29;;;;;;;7.00;1.73;;;6.70;99.90;8.00;101366.00;;;;5042295;28;20178;-65
2024/01/21 17:51:55;;;;;;;7.23;2.50;;;6.60;99.90;8.00;101349.00;;;;5058811;28;20237;-66
2024/01/21 17:54:23;;;;;;;2.17;1.73;;;6.60;99.90;8.30;101348.00;;;;5037905;28;20190;-66
2024/01/21 17:56:57;;;;;;;2.10;1.90;;;6.70;99.90;8.00;101345.00;;;;5050451;28;20545;-65
2024/01/21 17:59:28;;;;;;;1.70;1.23;;;6.70;99.90;8.00;101355.00;;;;5063215;28;20202;-67
2024/01/21 18:01:54;;;;;;;1.80;1.40;;;6.60;99.90;7.90;101330.00;;;;5039390;28;20218;-65
2024/01/21 18:04:21;;;;;;;4.10;3.70;;;6.50;99.90;7.80;101335.00;;;;5038913;28;20239;-65
2024/01/21 18:06:48;;;;;;;4.43;4.00;;;6.60;99.90;7.40;101334.00;;;;5047520;28;20183;-65
2024/01/21 18:09:16;;;;;;;3.00;2.47;;;6.50;99.90;7.50;101283.00;;;;5058576;28;20246;-65
2024/01/21 18:11:44;;;;;;;1.93;1.73;;;6.50;99.90;7.70;101321.00;;;;5051467;28;20213;-66
2024/01/21 18:14:10;;;;;;;3.00;2.27;;;6.50;99.90;7.80;101324.00;;;;5041711;28;20190;-65
2024/01/21 18:16:38;;;;;;;2.20;2.03;;;6.50;99.90;8.00;101294.00;;;;5054888;28;20174;-66
2024/01/21 18:19:07;;;;;;;4.07;3.13;;;6.60;99.90;8.00;101336.00;;;;5058538;28;20220;-65
2024/01/21 18:21:39;;;;;;;3.73;1.83;;;6.60;99.90;7.70;101347.00;;;;5041972;28;20607;-65
2024/01/21 18:24:06;;;;;;;2.27;1.63;;;6.50;99.90;8.00;101337.00;;;;5042012;28;20169;-65
2024/01/21 18:26:38;;;;;;;6.70;5.77;;;6.70;99.90;7.60;101342.00;;;;5057364;28;20223;-65
2024/01/21 18:29:33;;;;;;;1.90;1.50;;;6.70;99.90;7.90;101312.00;;;;5057620;28;20192;-66
2024/01/21 18:32:25;;;;;;;7.13;3.53;;;6.70;99.90;7.70;101311.00;;;;5057419;28;20296;-66
2024/01/21 18:35:17;;;;;;;4.13;3.53;;;6.70;99.90;7.50;101277.00;;;;5037176;28;20197;-65
2024/01/21 18:37:47;;;;;;;7.60;3.30;;;6.60;99.90;7.70;101300.00;;;;5040539;28;20505;-65
2024/01/21 18:40:25;;;;;;;1.87;1.77;;;6.70;99.90;8.10;101298.00;;;;5059112;28;20525;-66
2024/01/21 18:43:14;;;;;;;2.43;2.23;;;6.80;99.90;8.40;101286.00;;;;5057564;28;20204;-65
2024/01/21 18:46:45;;;;;;;2.17;2.07;;;6.90;99.90;8.10;101275.00;;;;5037470;28;20216;-65
2024/01/21 18:52:58;;;;;;;3.57;3.27;;;6.90;99.90;7.60;101251.00;;;;5071442;28;20216;-65
2024/01/21 18:55:24;;;;;;;8.43;1.70;;;6.90;99.90;8.10;101249.00;;;;5031514;28;20527;-65
2024/01/21 18:57:54;;;;;;;1.83;1.73;;;6.90;99.90;8.20;101233.00;;;;5036822;28;20250;-66
2024/01/21 19:00:20;;;;;;;2.83;2.57;;;7.00;99.90;8.00;101242.00;;;;5039597;28;20201;-65
2024/01/21 19:02:46;;;;;;;2.97;2.20;;;7.00;99.90;8.40;101223.00;;;;5039776;28;20185;-65
2024/01/21 19:05:13;;;;;;;5.40;3.53;;;7.10;99.90;8.50;101220.00;;;;5036024;28;20662;-65
2024/01/21 19:07:42;;;;;;;2.17;1.87;;;7.20;99.90;8.90;101203.00;;;;5051094;28;20190;-66
2024/01/21 19:10:09;;;;;;;3.70;3.00;;;7.20;99.90;8.30;101183.00;;;;5051343;28;20173;-65
2024/01/21 19:12:35;;;;;;;4.20;3.10;;;7.10;99.90;8.30;101198.00;;;;5028127;28;20195;-66
2024/01/21 19:15:01;;;;;;;4.93;3.27;;;7.10;99.90;8.60;101202.00;;;;5052895;28;20189;-66
2024/01/21 19:17:27;;;;;;;2.77;2.40;;;7.20;99.90;8.30;101210.00;;;;5055646;28;20182;-65
2024/01/21 19:19:55;;;;;;;5.80;2.53;;;7.20;99.90;8.40;101204.00;;;;5055326;28;20190;-65
2024/01/21 19:22:21;;;;;;;2.03;1.87;;;7.20;99.90;8.10;101186.00;;;;5038430;28;20189;-65
2024/01/21 19:24:47;;;;;;;1.43;1.33;;;7.10;99.90;8.40;101189.00;;;;5055286;28;20260;-65
2024/01/21 19:27:13;;;;;;;2.00;1.20;;;7.20;99.90;8.60;101181.00;;;;5051359;28;20210;-65